Time;durP1;ratioP1;P1;durP2;ratioP2;P2;SDS_P1;SDS_P2;PMS_P1;PMS_P2;Temp;Humidity;BMP_temperature;BMP_pressure;BME280_temperature;BME280_humidity;BME280_pressure;Samples;Min_cycle;Max_cycle;Signal;HPM_P1;HPM_P2
2023/09/17 00:01:24;;;;;;;18.60;12.93;;;20.80;72.30;;;;;;5062423;28;20467;-79
2023/09/17 00:03:53;;;;;;;21.17;13.70;;;20.80;72.40;;;;;;5042903;28;20418;-78
2023/09/17 00:06:18;;;;;;;17.67;13.25;;;20.80;72.90;;;;;;5041798;28;20427;-77
2023/09/17 00:08:44;;;;;;;19.50;13.82;;;20.70;74.80;;;;;;5064144;28;20453;-77
2023/09/17 00:11:10;;;;;;;19.40;14.60;;;20.80;74.70;;;;;;5071077;28;20374;-80
2023/09/17 00:13:37;;;;;;;19.58;14.70;;;20.80;76.30;;;;;;5045443;28;20390;-79
2023/09/17 00:16:03;;;;;;;18.88;15.43;;;20.80;76.40;;;;;;5070343;28;20384;-76
2023/09/17 00:18:29;;;;;;;22.70;15.55;;;20.70;78.60;;;;;;5070142;28;20377;-79
2023/09/17 00:20:54;;;;;;;23.90;17.00;;;20.70;81.80;;;;;;5062393;28;20396;-76
2023/09/17 00:23:20;;;;;;;28.07;18.10;;;20.60;83.30;;;;;;5061356;28;20449;-78
2023/09/17 00:25:46;;;;;;;26.60;18.55;;;20.60;85.40;;;;;;5057253;28;20385;-77
2023/09/17 00:28:11;;;;;;;29.67;19.80;;;20.40;90.10;;;;;;5059017;28;20400;-79
2023/09/17 00:30:37;;;;;;;39.30;23.57;;;20.30;91.40;;;;;;5039043;28;20415;-78
2023/09/17 00:33:03;;;;;;;30.52;23.00;;;20.40;90.80;;;;;;5058003;28;20472;-78
2023/09/17 00:35:28;;;;;;;32.33;22.85;;;20.30;93.20;;;;;;5056787;28;20381;-80
2023/09/17 00:37:54;;;;;;;34.73;24.00;;;20.40;94.50;;;;;;5057452;28;20384;-79
2023/09/17 00:40:23;;;;;;;37.70;26.80;;;20.50;94.50;;;;;;5043036;28;20393;-79
2023/09/17 00:42:49;;;;;;;51.13;28.23;;;20.40;99.20;;;;;;5041331;28;20393;-78
2023/09/17 00:45:15;;;;;;;22.75;13.85;;;20.10;99.90;;;;;;5046373;28;21049;-78
2023/09/17 00:47:41;;;;;;;24.20;16.05;;;19.70;99.90;;;;;;5054046;28;20404;-77
2023/09/17 00:50:09;;;;;;;21.55;14.23;;;19.50;99.90;;;;;;5055060;28;20401;-77
2023/09/17 00:52:35;;;;;;;27.60;17.15;;;19.30;99.90;;;;;;5056605;28;20901;-76
2023/09/17 00:55:01;;;;;;;35.30;21.90;;;19.30;99.90;;;;;;5039114;28;20400;-77
2023/09/17 00:57:27;;;;;;;32.92;20.65;;;19.30;99.90;;;;;;5055712;28;20466;-77
2023/09/17 00:59:52;;;;;;;38.53;23.77;;;19.20;99.90;;;;;;5029560;28;20411;-76
2023/09/17 01:02:21;;;;;;;33.58;22.60;;;19.20;99.90;;;;;;5030385;28;20439;-75
2023/09/17 01:04:49;;;;;;;33.38;23.20;;;19.20;99.90;;;;;;5039513;28;20480;-75
2023/09/17 01:07:19;;;;;;;34.40;21.45;;;19.30;99.90;;;;;;5051505;28;20395;-75
2023/09/17 01:09:45;;;;;;;32.65;22.10;;;19.30;99.90;;;;;;5049775;28;20488;-76
2023/09/17 01:12:12;;;;;;;33.53;21.90;;;19.20;99.90;;;;;;5050638;28;20896;-74
2023/09/17 01:14:37;;;;;;;31.53;22.57;;;19.20;99.90;;;;;;5050895;28;20412;-77
2023/09/17 01:17:06;;;;;;;36.40;23.50;;;19.30;99.90;;;;;;5051011;28;20424;-77
2023/09/17 01:19:33;;;;;;;44.40;27.13;;;19.20;99.90;;;;;;5050905;28;20762;-76
2023/09/17 01:22:26;;;;;;;44.78;26.95;;;19.30;99.90;;;;;;5050010;28;20389;-76
2023/09/17 01:25:14;;;;;;;53.63;31.58;;;19.20;99.90;;;;;;5050461;28;20385;-76
2023/09/17 01:27:41;;;;;;;57.67;35.35;;;19.30;99.90;;;;;;5032229;28;20409;-76
2023/09/17 01:30:15;;;;;;;61.65;36.80;;;19.30;99.90;;;;;;5049791;28;20415;-75
2023/09/17 01:32:42;;;;;;;62.60;39.28;;;19.20;99.90;;;;;;5051953;28;20384;-77
2023/09/17 01:35:13;;;;;;;71.57;41.75;;;19.30;99.90;;;;;;5055897;28;20385;-77
2023/09/17 01:37:46;;;;;;;71.13;41.50;;;19.20;99.90;;;;;;5057163;28;20398;-76
2023/09/17 01:40:13;;;;;;;73.40;43.35;;;19.20;99.90;;;;;;5057675;28;20796;-76
2023/09/17 01:42:44;;;;;;;73.57;43.37;;;19.20;99.90;;;;;;5055970;28;20389;-77
2023/09/17 01:45:14;;;;;;;77.53;44.28;;;19.20;99.90;;;;;;5054455;28;20389;-75
2023/09/17 01:47:44;;;;;;;82.43;46.78;;;19.20;99.90;;;;;;5054201;28;20812;-75
2023/09/17 01:50:15;;;;;;;83.45;48.78;;;19.20;99.90;;;;;;5054576;28;20511;-75
2023/09/17 01:52:44;;;;;;;78.32;46.13;;;19.20;99.90;;;;;;5054850;28;20388;-75
2023/09/17 01:55:10;;;;;;;79.90;47.85;;;19.20;99.90;;;;;;5054198;28;20401;-75
2023/09/17 01:57:36;;;;;;;79.35;47.92;;;19.20;99.90;;;;;;5054192;28;20389;-77
2023/09/17 02:00:14;;;;;;;79.32;48.38;;;19.20;99.90;;;;;;5053797;28;20408;-77
2023/09/17 02:02:46;;;;;;;78.97;50.22;;;19.20;99.90;;;;;;5054001;28;20476;-76
2023/09/17 02:05:13;;;;;;;76.07;47.38;;;19.20;99.90;;;;;;5054424;28;20392;-76
2023/09/17 02:07:38;;;;;;;84.70;49.60;;;19.20;99.90;;;;;;5054660;28;20435;-76
2023/09/17 02:10:05;;;;;;;77.37;48.67;;;19.20;99.90;;;;;;5053767;28;20405;-77
2023/09/17 02:12:30;;;;;;;80.47;50.90;;;19.20;99.90;;;;;;5054433;28;20467;-77
2023/09/17 02:14:56;;;;;;;79.10;50.50;;;19.20;99.90;;;;;;5054408;28;20938;-76
2023/09/17 02:17:21;;;;;;;80.38;48.67;;;19.20;99.90;;;;;;5054535;28;20886;-77
2023/09/17 02:19:47;;;;;;;83.22;49.47;;;19.00;99.90;;;;;;5054553;28;20450;-76
2023/09/17 02:22:13;;;;;;;86.70;51.80;;;19.10;99.90;;;;;;5054610;28;20474;-76
2023/09/17 02:24:39;;;;;;;79.80;49.60;;;19.20;99.90;;;;;;5054789;28;20947;-77
2023/09/17 02:27:04;;;;;;;78.47;51.00;;;19.20;99.90;;;;;;5054393;28;20508;-77
2023/09/17 02:29:30;;;;;;;73.20;48.15;;;19.20;99.90;;;;;;5054521;28;20405;-76
2023/09/17 02:31:55;;;;;;;77.03;47.80;;;19.20;99.90;;;;;;5036347;28;20389;-77
2023/09/17 02:34:21;;;;;;;67.40;46.10;;;19.20;99.90;;;;;;5037117;28;20470;-77
2023/09/17 02:36:46;;;;;;;72.63;46.88;;;19.30;99.90;;;;;;5036528;28;20393;-77
2023/09/17 02:39:13;;;;;;;72.83;45.90;;;19.20;99.90;;;;;;5038484;28;20432;-76
2023/09/17 02:41:39;;;;;;;77.93;49.13;;;19.20;99.90;;;;;;5055374;28;20385;-77
2023/09/17 02:44:06;;;;;;;71.80;48.00;;;19.20;99.90;;;;;;5036298;28;20932;-77
2023/09/17 02:46:32;;;;;;;74.18;45.88;;;19.20;99.90;;;;;;5053093;28;20504;-76
2023/09/17 02:48:58;;;;;;;69.63;46.58;;;19.20;99.90;;;;;;5053983;28;20409;-76
2023/09/17 02:51:25;;;;;;;67.60;46.63;;;19.20;99.90;;;;;;5053794;28;20795;-76
2023/09/17 02:53:51;;;;;;;65.27;44.90;;;19.20;99.90;;;;;;5055005;28;20461;-76
2023/09/17 02:56:16;;;;;;;63.87;42.97;;;19.20;99.90;;;;;;5056052;28;20458;-76
2023/09/17 02:58:42;;;;;;;70.47;43.67;;;19.30;99.90;;;;;;5037679;28;20390;-76
2023/09/17 03:01:18;;;;;;;65.30;42.50;;;19.30;99.90;;;;;;5056632;28;20440;-76
2023/09/17 03:03:47;;;;;;;62.78;42.08;;;19.30;99.90;;;;;;5036061;28;20472;-76
2023/09/17 03:06:13;;;;;;;66.17;42.50;;;19.30;99.90;;;;;;5058195;28;20405;-77
2023/09/17 03:08:41;;;;;;;67.55;41.85;;;19.20;99.90;;;;;;5058940;28;20453;-75
2023/09/17 03:11:15;;;;;;;67.40;43.65;;;19.20;99.90;;;;;;5058426;28;20386;-75
2023/09/17 03:13:42;;;;;;;63.80;44.03;;;19.20;99.90;;;;;;5036912;28;20389;-75
2023/09/17 03:16:08;;;;;;;67.47;41.92;;;19.30;99.90;;;;;;5053545;28;20393;-75
2023/09/17 03:18:34;;;;;;;72.88;42.53;;;19.20;99.90;;;;;;5034859;28;20393;-75
2023/09/17 03:20:59;;;;;;;67.53;42.35;;;19.20;99.90;;;;;;5052650;28;20557;-76
2023/09/17 03:23:25;;;;;;;68.63;44.03;;;19.20;99.90;;;;;;5052536;28;20773;-75
2023/09/17 03:25:51;;;;;;;67.10;43.13;;;19.10;99.90;;;;;;5052390;28;20438;-75
2023/09/17 03:28:16;;;;;;;65.63;42.20;;;19.10;99.90;;;;;;5034437;28;20454;-75
2023/09/17 03:30:43;;;;;;;68.68;44.30;;;19.10;99.90;;;;;;5052289;28;20397;-74
2023/09/17 03:33:08;;;;;;;64.38;43.33;;;19.00;99.90;;;;;;5034095;28;20401;-74
2023/09/17 03:35:34;;;;;;;63.88;43.13;;;19.00;99.90;;;;;;5034236;28;20723;-76
2023/09/17 03:38:00;;;;;;;64.03;41.37;;;19.00;99.90;;;;;;5052217;28;20390;-74
2023/09/17 03:40:25;;;;;;;62.80;41.90;;;19.10;99.90;;;;;;5052063;28;20389;-75
2023/09/17 03:42:51;;;;;;;58.27;39.60;;;19.20;99.90;;;;;;5051601;28;20385;-75
2023/09/17 03:45:17;;;;;;;59.80;41.10;;;19.20;99.90;;;;;;5052433;28;20464;-76
2023/09/17 03:47:44;;;;;;;62.72;41.00;;;19.20;99.90;;;;;;5052961;28;20385;-76
2023/09/17 03:50:13;;;;;;;65.70;42.03;;;19.10;99.90;;;;;;5052433;28;20602;-76
2023/09/17 03:52:41;;;;;;;66.15;41.25;;;19.00;99.90;;;;;;5052322;28;20393;-75
2023/09/17 03:55:07;;;;;;;60.05;39.53;;;19.10;99.90;;;;;;5052275;28;20827;-75
2023/09/17 03:57:35;;;;;;;59.75;40.40;;;19.10;99.90;;;;;;5051206;28;20501;-75
2023/09/17 04:00:07;;;;;;;60.78;41.03;;;19.10;99.90;;;;;;5051627;28;20428;-75
2023/09/17 04:02:35;;;;;;;55.13;38.37;;;19.10;99.90;;;;;;5051354;28;20444;-75
2023/09/17 04:05:01;;;;;;;56.75;38.35;;;19.20;99.90;;;;;;5033660;28;20419;-75
2023/09/17 04:07:27;;;;;;;56.05;37.92;;;19.20;99.90;;;;;;5033800;28;20393;-75
2023/09/17 04:09:53;;;;;;;60.00;39.33;;;19.20;99.90;;;;;;5051023;28;20440;-75
2023/09/17 04:12:19;;;;;;;62.13;40.53;;;19.10;99.90;;;;;;5051241;28;20416;-75
2023/09/17 04:14:44;;;;;;;65.55;40.72;;;19.10;99.90;;;;;;5051242;28;20417;-75
2023/09/17 04:17:10;;;;;;;61.53;39.65;;;19.10;99.90;;;;;;5051347;28;20377;-75
2023/09/17 04:19:35;;;;;;;63.37;40.53;;;19.10;99.90;;;;;;5051430;28;20858;-75
2023/09/17 04:22:02;;;;;;;57.70;39.65;;;19.10;99.90;;;;;;5051724;28;20393;-75
2023/09/17 04:24:28;;;;;;;58.03;39.83;;;19.10;99.90;;;;;;5052594;28;20420;-75
2023/09/17 04:26:54;;;;;;;60.42;39.72;;;19.00;99.90;;;;;;5033993;28;20431;-75
2023/09/17 04:29:20;;;;;;;60.47;39.30;;;19.10;99.90;;;;;;5051096;28;20437;-76
2023/09/17 04:31:46;;;;;;;53.87;37.97;;;19.10;99.90;;;;;;5051107;28;20392;-76
2023/09/17 04:34:13;;;;;;;56.85;38.08;;;19.10;99.90;;;;;;5051809;28;20389;-76
2023/09/17 04:36:39;;;;;;;59.75;41.17;;;19.20;99.90;;;;;;5051381;28;20389;-76
2023/09/17 04:39:05;;;;;;;58.67;38.60;;;19.00;99.90;;;;;;5050949;28;20897;-76
2023/09/17 04:41:30;;;;;;;65.65;40.00;;;19.00;99.90;;;;;;5050698;28;20421;-75
2023/09/17 04:43:56;;;;;;;53.87;38.00;;;19.10;99.90;;;;;;5050859;28;20381;-76
2023/09/17 04:46:22;;;;;;;56.55;39.03;;;19.20;99.90;;;;;;5050906;28;20389;-75
2023/09/17 04:48:47;;;;;;;57.20;37.92;;;19.20;99.90;;;;;;5032893;28;20393;-75
2023/09/17 04:51:16;;;;;;;55.05;37.30;;;19.20;99.90;;;;;;5050891;28;20897;-76
2023/09/17 04:53:42;;;;;;;52.28;36.65;;;19.30;99.90;;;;;;5051480;28;20374;-76
2023/09/17 04:56:08;;;;;;;51.95;36.15;;;19.20;99.90;;;;;;5051265;28;20436;-76
2023/09/17 04:58:34;;;;;;;51.50;36.13;;;19.20;99.90;;;;;;5051466;28;20381;-76
2023/09/17 05:00:59;;;;;;;54.00;38.03;;;19.20;99.90;;;;;;5050734;28;20385;-76
2023/09/17 05:03:25;;;;;;;57.63;40.20;;;19.10;99.90;;;;;;5051096;28;20768;-75
2023/09/17 05:05:51;;;;;;;60.17;40.27;;;19.00;99.90;;;;;;5051531;28;20378;-74
2023/09/17 05:08:18;;;;;;;63.17;39.70;;;19.00;99.90;;;;;;5050592;28;20401;-76
2023/09/17 05:10:44;;;;;;;67.55;42.97;;;18.80;99.90;;;;;;5050851;28;20894;-74
2023/09/17 05:13:09;;;;;;;68.25;43.33;;;18.70;99.90;;;;;;5051404;28;20442;-75
2023/09/17 05:15:38;;;;;;;67.90;43.35;;;18.80;99.90;;;;;;5051349;28;20885;-75
2023/09/17 05:18:09;;;;;;;68.80;43.30;;;18.80;99.90;;;;;;5050690;28;20898;-75
2023/09/17 05:20:35;;;;;;;64.43;41.83;;;18.80;99.90;;;;;;5050561;28;20847;-74
2023/09/17 05:23:01;;;;;;;77.82;43.92;;;18.70;99.90;;;;;;5032289;28;20416;-74
2023/09/17 05:25:27;;;;;;;68.93;43.35;;;18.60;99.90;;;;;;5050472;28;20474;-74
2023/09/17 05:27:52;;;;;;;72.90;42.72;;;18.60;99.90;;;;;;5050360;28;20410;-74
2023/09/17 05:30:18;;;;;;;76.73;45.13;;;18.50;99.90;;;;;;5050280;28;20910;-74
2023/09/17 05:32:43;;;;;;;73.77;42.37;;;18.40;99.90;;;;;;5050182;28;20442;-75
2023/09/17 05:35:09;;;;;;;75.55;44.45;;;18.50;99.90;;;;;;5050183;28;20400;-75
2023/09/17 05:37:35;;;;;;;75.88;46.03;;;18.40;99.90;;;;;;5050359;28;20885;-75
2023/09/17 05:40:00;;;;;;;78.30;43.73;;;18.50;99.90;;;;;;5050266;28;20392;-75
2023/09/17 05:42:26;;;;;;;74.93;42.30;;;18.50;99.90;;;;;;5050106;28;20424;-75
2023/09/17 05:44:52;;;;;;;64.85;39.97;;;18.50;99.90;;;;;;5050286;28;20396;-75
2023/09/17 05:47:18;;;;;;;62.05;38.85;;;18.50;99.90;;;;;;5050320;28;20807;-75
2023/09/17 05:49:43;;;;;;;64.35;38.47;;;18.50;99.90;;;;;;5032472;28;20409;-76
2023/09/17 05:52:09;;;;;;;64.57;38.70;;;18.50;99.90;;;;;;5050687;28;20385;-75
2023/09/17 05:54:34;;;;;;;56.03;36.20;;;18.60;99.90;;;;;;5033288;28;20412;-75
2023/09/17 05:57:00;;;;;;;57.75;36.40;;;18.60;99.90;;;;;;5034054;28;20886;-75
2023/09/17 05:59:25;;;;;;;59.23;37.50;;;18.50;99.90;;;;;;5033766;28;20748;-75
2023/09/17 06:01:51;;;;;;;52.03;34.05;;;18.50;99.90;;;;;;5052344;28;20397;-75
2023/09/17 06:04:17;;;;;;;50.10;32.33;;;18.50;99.90;;;;;;5052296;28;20516;-75
2023/09/17 06:06:42;;;;;;;50.73;32.27;;;18.60;99.90;;;;;;5052049;28;20397;-75
2023/09/17 06:09:08;;;;;;;49.85;31.77;;;18.60;99.90;;;;;;5050740;28;20496;-74
2023/09/17 06:11:34;;;;;;;41.08;26.05;;;18.60;99.90;;;;;;5050579;28;20381;-74
2023/09/17 06:13:59;;;;;;;37.20;25.80;;;18.80;99.90;;;;;;5050865;28;20516;-74
2023/09/17 06:16:25;;;;;;;32.80;23.03;;;18.80;99.90;;;;;;5051738;28;20381;-74
2023/09/17 06:18:51;;;;;;;28.40;22.50;;;18.90;99.90;;;;;;5052541;28;20386;-75
2023/09/17 06:21:16;;;;;;;26.40;20.35;;;18.90;99.90;;;;;;5055850;28;20460;-75
2023/09/17 06:23:42;;;;;;;28.83;19.53;;;19.00;99.90;;;;;;5062010;28;20409;-75
2023/09/17 06:26:08;;;;;;;28.13;20.30;;;19.00;99.90;;;;;;5060946;28;20386;-74
2023/09/17 06:28:34;;;;;;;24.45;19.25;;;19.10;99.90;;;;;;5062173;28;20386;-74
2023/09/17 06:31:01;;;;;;;26.80;18.90;;;19.20;99.90;;;;;;5060877;28;20409;-75
2023/09/17 06:33:27;;;;;;;24.73;18.50;;;19.40;99.90;;;;;;5060422;28;20469;-75
2023/09/17 06:35:53;;;;;;;22.92;18.08;;;19.60;99.90;;;;;;5062227;28;20381;-74
2023/09/17 06:38:18;;;;;;;26.90;16.70;;;19.70;99.90;;;;;;5059917;28;20408;-74
2023/09/17 06:40:44;;;;;;;24.90;17.70;;;20.00;99.90;;;;;;5053950;28;20769;-74
2023/09/17 06:43:09;;;;;;;24.53;17.53;;;20.10;99.90;;;;;;5036228;28;20443;-74
2023/09/17 06:45:35;;;;;;;19.47;15.53;;;20.20;99.90;;;;;;5053333;28;20392;-74
2023/09/17 06:48:01;;;;;;;23.67;15.30;;;20.20;99.90;;;;;;5053213;28;20381;-76
2023/09/17 06:50:26;;;;;;;22.23;16.07;;;20.20;99.90;;;;;;5053284;28;20397;-76
2023/09/17 06:52:52;;;;;;;22.17;16.58;;;20.20;99.90;;;;;;5052901;28;20464;-76
2023/09/17 06:55:17;;;;;;;24.77;15.67;;;20.20;99.90;;;;;;5053834;28;20382;-75
2023/09/17 06:57:43;;;;;;;19.10;15.35;;;20.20;99.90;;;;;;5056770;28;20450;-76
2023/09/17 07:00:10;;;;;;;22.47;15.13;;;20.20;99.90;;;;;;5067105;28;20392;-76
2023/09/17 07:02:35;;;;;;;18.63;14.95;;;20.30;99.90;;;;;;5038809;28;20555;-76
2023/09/17 07:05:03;;;;;;;19.60;15.77;;;20.30;99.90;;;;;;5053286;28;20459;-76
2023/09/17 07:07:29;;;;;;;19.45;15.48;;;20.40;99.90;;;;;;5052983;28;20866;-74
2023/09/17 07:09:55;;;;;;;22.00;15.27;;;20.50;99.90;;;;;;5052128;28;20409;-74
2023/09/17 07:12:20;;;;;;;17.73;14.17;;;20.60;99.90;;;;;;5052239;28;20385;-75
2023/09/17 07:14:46;;;;;;;18.90;14.27;;;20.60;99.90;;;;;;5052017;28;20401;-75
2023/09/17 07:17:12;;;;;;;18.67;14.73;;;20.70;99.90;;;;;;5047436;28;20406;-75
2023/09/17 07:19:38;;;;;;;20.50;14.10;;;20.80;99.90;;;;;;5052904;28;20464;-75
2023/09/17 07:22:04;;;;;;;19.98;14.38;;;20.80;99.90;;;;;;5046850;28;20879;-75
2023/09/17 07:24:29;;;;;;;20.70;14.23;;;20.90;99.10;;;;;;5032486;28;20717;-76
2023/09/17 07:26:55;;;;;;;18.25;13.93;;;21.00;98.70;;;;;;5041997;28;20392;-76
2023/09/17 07:29:20;;;;;;;18.27;13.93;;;21.10;98.40;;;;;;5051868;28;20413;-74
2023/09/17 07:31:47;;;;;;;15.98;13.65;;;21.10;94.30;;;;;;5049809;28;20928;-74
2023/09/17 07:34:13;;;;;;;21.00;14.35;;;21.20;92.30;;;;;;5052456;28;20454;-74
2023/09/17 07:36:38;;;;;;;16.60;13.10;;;21.20;90.30;;;;;;5052358;28;20472;-75
2023/09/17 07:39:04;;;;;;;18.00;13.63;;;21.40;91.20;;;;;;5052490;28;20389;-76
2023/09/17 07:41:29;;;;;;;15.47;12.47;;;21.40;92.30;;;;;;5052476;28;20385;-76
2023/09/17 07:43:58;;;;;;;16.90;12.30;;;21.50;84.30;;;;;;5064039;28;20398;-78
2023/09/17 07:46:24;;;;;;;17.75;12.18;;;21.50;79.90;;;;;;5070755;28;20381;-78
2023/09/17 07:48:49;;;;;;;14.60;11.53;;;21.60;77.50;;;;;;5056682;28;20469;-78
2023/09/17 07:51:16;;;;;;;16.65;12.43;;;21.60;77.80;;;;;;5057223;28;20377;-79
2023/09/17 07:53:42;;;;;;;12.18;10.70;;;21.70;76.20;;;;;;5057484;28;20381;-80
2023/09/17 07:56:07;;;;;;;17.90;12.20;;;21.70;73.40;;;;;;5051577;28;20451;-79
2023/09/17 07:58:33;;;;;;;14.98;11.32;;;21.80;74.00;;;;;;5042368;28;20385;-77
2023/09/17 08:00:59;;;;;;;17.50;11.67;;;21.90;72.70;;;;;;5056546;28;20390;-78
2023/09/17 08:03:24;;;;;;;16.37;11.30;;;21.90;73.20;;;;;;5054030;28;20429;-78
2023/09/17 08:05:50;;;;;;;13.80;10.65;;;21.90;74.00;;;;;;5036749;28;20455;-76
2023/09/17 08:08:16;;;;;;;13.67;10.80;;;22.00;71.50;;;;;;5033001;28;20632;-77
2023/09/17 08:10:41;;;;;;;15.10;10.23;;;22.00;70.70;;;;;;5051811;28;20401;-79
2023/09/17 08:13:07;;;;;;;13.98;10.32;;;22.00;70.80;;;;;;5050805;28;20378;-77
2023/09/17 08:15:35;;;;;;;12.37;9.33;;;22.10;71.30;;;;;;5036325;28;20391;-77
2023/09/17 08:18:01;;;;;;;11.60;8.68;;;22.20;68.30;;;;;;5032987;28;20397;-78
2023/09/17 08:20:27;;;;;;;12.43;9.40;;;22.30;65.20;;;;;;5051565;28;20389;-78
2023/09/17 08:22:53;;;;;;;14.15;8.10;;;22.30;64.60;;;;;;5031920;28;20401;-76
2023/09/17 08:25:19;;;;;;;9.82;7.72;;;22.30;62.20;;;;;;5037764;28;20904;-77
2023/09/17 08:27:46;;;;;;;8.40;7.20;;;22.30;63.80;;;;;;5034726;28;20958;-77
2023/09/17 08:30:13;;;;;;;9.00;6.85;;;22.50;59.70;;;;;;5030611;28;20407;-77
2023/09/17 08:32:44;;;;;;;9.60;7.78;;;22.50;58.40;;;;;;5036479;28;20389;-76
2023/09/17 08:35:14;;;;;;;10.68;7.85;;;22.60;57.60;;;;;;5050320;28;20878;-76
2023/09/17 08:37:43;;;;;;;10.68;7.38;;;22.80;55.40;;;;;;5050315;28;20489;-76
2023/09/17 08:40:13;;;;;;;9.38;7.13;;;22.70;54.70;;;;;;5052167;28;20405;-75
2023/09/17 08:42:41;;;;;;;10.02;7.38;;;22.70;55.80;;;;;;5032286;28;20488;-76
2023/09/17 08:45:09;;;;;;;13.30;7.07;;;22.80;53.80;;;;;;5031351;28;20748;-77
2023/09/17 08:47:36;;;;;;;13.65;7.38;;;23.00;53.00;;;;;;5049077;28;20543;-75
2023/09/17 08:50:02;;;;;;;8.60;6.97;;;23.10;51.90;;;;;;5048675;28;20521;-76
2023/09/17 08:52:33;;;;;;;12.50;7.00;;;23.20;50.30;;;;;;5048006;28;20400;-76
2023/09/17 08:54:59;;;;;;;10.82;7.10;;;23.30;50.40;;;;;;5048024;28;20396;-76
2023/09/17 08:57:26;;;;;;;11.00;7.85;;;23.40;50.60;;;;;;5048197;28;20400;-76
2023/09/17 09:00:02;;;;;;;10.50;6.60;;;23.50;49.90;;;;;;5049693;28;20487;-76
2023/09/17 09:02:34;;;;;;;10.10;6.97;;;23.70;48.90;;;;;;5049260;28;20476;-76
2023/09/17 09:05:01;;;;;;;13.50;7.15;;;23.80;47.10;;;;;;5048314;28;20381;-76
2023/09/17 09:07:28;;;;;;;8.80;6.20;;;24.00;45.70;;;;;;5048903;28;20755;-76
2023/09/17 09:09:55;;;;;;;11.88;6.75;;;24.10;44.80;;;;;;5047960;28;20413;-75
2023/09/17 09:12:21;;;;;;;8.13;6.25;;;24.10;43.90;;;;;;5047452;28;20389;-75
2023/09/17 09:14:48;;;;;;;9.02;6.47;;;24.00;43.90;;;;;;5047361;28;20405;-77
2023/09/17 09:17:13;;;;;;;7.95;5.72;;;24.10;45.00;;;;;;5046489;28;20729;-76
2023/09/17 09:19:40;;;;;;;10.35;6.13;;;24.30;44.40;;;;;;5047413;28;20979;-76
2023/09/17 09:22:05;;;;;;;8.30;6.25;;;24.40;41.90;;;;;;5030358;28;20468;-75
2023/09/17 09:25:01;;;;;;;7.87;6.40;;;24.40;41.70;;;;;;5051285;28;20506;-78
2023/09/17 09:27:27;;;;;;;10.15;5.60;;;24.30;42.10;;;;;;5026895;28;20420;-76
2023/09/17 09:29:52;;;;;;;10.63;6.00;;;24.30;42.40;;;;;;5047924;28;20401;-75
2023/09/17 09:32:18;;;;;;;10.07;6.20;;;24.30;41.50;;;;;;5046609;28;20478;-75
2023/09/17 09:34:47;;;;;;;7.25;5.85;;;24.40;42.10;;;;;;5048317;28;20436;-76
2023/09/17 09:37:12;;;;;;;9.40;5.20;;;24.50;42.40;;;;;;5028566;28;20429;-75
2023/09/17 09:39:39;;;;;;;5.70;5.10;;;24.70;41.10;;;;;;5045946;28;20426;-77
2023/09/17 09:42:05;;;;;;;6.20;5.00;;;24.80;39.60;;;;;;5059640;28;20411;-75
2023/09/17 09:44:31;;;;;;;5.72;4.80;;;25.10;39.20;;;;;;5072507;28;20384;-76
2023/09/17 09:47:19;;;;;;;8.57;5.60;;;25.20;38.10;;;;;;5078613;28;20471;-78
2023/09/17 09:49:44;;;;;;;5.40;4.90;;;25.30;36.80;;;;;;5083579;28;20414;-76
2023/09/17 09:52:12;;;;;;;8.13;5.90;;;25.60;36.50;;;;;;5079786;28;20429;-80
2023/09/17 09:54:40;;;;;;;7.65;5.22;;;25.70;35.20;;;;;;5047299;28;20394;-77
2023/09/17 09:57:10;;;;;;;7.72;4.95;;;26.10;34.10;;;;;;5058475;28;20381;-79
2023/09/17 09:59:44;;;;;;;6.20;4.80;;;26.20;33.80;;;;;;5054604;28;20401;-76
2023/09/17 10:02:12;;;;;;;7.37;5.50;;;26.30;33.70;;;;;;5058364;28;20381;-77
2023/09/17 10:04:38;;;;;;;5.63;4.90;;;26.10;33.50;;;;;;5060613;28;20389;-77
2023/09/17 10:07:05;;;;;;;7.32;5.43;;;25.80;34.20;;;;;;5056058;28;20409;-76
2023/09/17 10:09:30;;;;;;;8.20;5.38;;;25.80;33.70;;;;;;5055016;28;20929;-77
2023/09/17 10:11:58;;;;;;;8.32;5.05;;;25.40;35.20;;;;;;5055802;28;20386;-77
2023/09/17 10:14:25;;;;;;;8.27;5.22;;;25.20;36.20;;;;;;5042291;28;20403;-77
2023/09/17 10:16:51;;;;;;;6.90;4.90;;;25.20;36.60;;;;;;5050076;28;20877;-77
2023/09/17 10:19:21;;;;;;;7.93;5.40;;;25.40;35.60;;;;;;5056856;28;20385;-77
2023/09/17 10:21:48;;;;;;;7.78;5.22;;;25.70;34.00;;;;;;5055230;28;20394;-78
2023/09/17 10:24:18;;;;;;;5.90;4.87;;;25.80;34.30;;;;;;5056665;28;20412;-76
2023/09/17 10:26:45;;;;;;;9.43;4.88;;;26.10;33.50;;;;;;5040891;28;20397;-78
2023/09/17 10:29:12;;;;;;;7.70;5.30;;;26.00;33.50;;;;;;5058995;28;20416;-78
2023/09/17 10:31:40;;;;;;;9.10;5.80;;;25.70;32.90;;;;;;5045960;28;20382;-77
2023/09/17 10:34:06;;;;;;;9.93;5.10;;;25.50;33.90;;;;;;5060035;28;20389;-78
2023/09/17 10:36:33;;;;;;;9.37;5.80;;;25.40;35.30;;;;;;5060357;28;20473;-77
2023/09/17 10:38:59;;;;;;;11.35;5.90;;;25.70;34.60;;;;;;5056990;28;20388;-78
2023/09/17 10:41:32;;;;;;;7.35;5.80;;;25.90;33.70;;;;;;5058197;28;20465;-78
2023/09/17 10:43:59;;;;;;;7.43;5.20;;;26.20;33.50;;;;;;5056484;28;20843;-77
2023/09/17 10:46:27;;;;;;;10.27;5.00;;;26.40;31.90;;;;;;5059558;28;20385;-77
2023/09/17 10:48:54;;;;;;;6.88;4.93;;;26.20;31.30;;;;;;5056418;28;20385;-77
2023/09/17 10:51:20;;;;;;;6.90;5.00;;;26.20;31.90;;;;;;5058657;28;20403;-76
2023/09/17 10:53:46;;;;;;;7.72;5.10;;;26.30;31.80;;;;;;5061153;28;20644;-77
2023/09/17 10:56:13;;;;;;;5.75;4.78;;;26.60;31.80;;;;;;5061322;28;20460;-77
2023/09/17 10:58:52;;;;;;;8.27;5.47;;;26.70;29.60;;;;;;5068498;28;20396;-77
2023/09/17 11:01:34;;;;;;;9.45;5.78;;;26.70;29.40;;;;;;5040405;28;20416;-78
2023/09/17 11:04:12;;;;;;;7.70;5.07;;;26.50;30.60;;;;;;5058733;28;20385;-77
2023/09/17 11:06:39;;;;;;;7.45;5.47;;;26.40;31.10;;;;;;5040542;28;20386;-77
2023/09/17 11:09:05;;;;;;;8.07;5.43;;;26.50;31.40;;;;;;5039724;28;20401;-78
2023/09/17 11:11:34;;;;;;;14.95;6.25;;;26.60;30.60;;;;;;5058222;28;20396;-77
2023/09/17 11:14:03;;;;;;;5.78;5.18;;;26.70;30.40;;;;;;5044768;28;20377;-77
2023/09/17 11:16:30;;;;;;;8.50;5.55;;;26.80;30.00;;;;;;5065694;28;20386;-76
2023/09/17 11:19:25;;;;;;;8.15;5.70;;;27.20;30.00;;;;;;5041509;28;20397;-76
2023/09/17 11:22:08;;;;;;;8.53;5.60;;;27.30;28.40;;;;;;5041683;28;20420;-77
2023/09/17 11:24:33;;;;;;;8.88;5.55;;;27.40;28.20;;;;;;5038935;28;20401;-76
2023/09/17 11:27:04;;;;;;;8.43;6.20;;;27.50;28.50;;;;;;5059921;28;20381;-77
2023/09/17 11:29:40;;;;;;;5.50;5.00;;;27.50;27.20;;;;;;5050209;28;20393;-77
2023/09/17 11:32:06;;;;;;;8.73;5.47;;;27.50;27.90;;;;;;5066393;28;20445;-76
2023/09/17 11:34:34;;;;;;;7.88;5.45;;;27.60;27.20;;;;;;5064010;28;20882;-77
2023/09/17 11:37:01;;;;;;;8.25;5.95;;;27.70;26.30;;;;;;5060480;28;20377;-77
2023/09/17 11:39:26;;;;;;;10.85;6.32;;;27.80;25.20;;;;;;5054542;28;20401;-77
2023/09/17 11:42:03;;;;;;;8.50;5.80;;;27.70;26.30;;;;;;5036503;28;20423;-78
2023/09/17 11:44:30;;;;;;;6.90;5.33;;;27.90;25.30;;;;;;5055807;28;20385;-79
2023/09/17 11:46:56;;;;;;;7.75;5.93;;;27.70;25.30;;;;;;5056118;28;20378;-79
2023/09/17 11:49:22;;;;;;;9.93;5.80;;;27.60;25.70;;;;;;5055192;28;20409;-77
2023/09/17 11:51:49;;;;;;;7.75;5.72;;;27.60;26.30;;;;;;5037334;28;20396;-79
2023/09/17 11:54:23;;;;;;;6.63;5.00;;;27.50;26.90;;;;;;5057546;28;20381;-78
2023/09/17 11:56:53;;;;;;;7.57;5.78;;;27.50;25.90;;;;;;5060986;28;20393;-77
2023/09/17 11:59:19;;;;;;;10.13;5.22;;;27.50;26.20;;;;;;5058007;28;20447;-77
2023/09/17 12:01:57;;;;;;;11.23;5.90;;;27.40;26.30;;;;;;5037470;28;20386;-77
2023/09/17 12:04:28;;;;;;;12.00;5.70;;;27.20;27.50;;;;;;5056713;28;20417;-77
2023/09/17 12:06:55;;;;;;;6.15;5.15;;;27.10;28.50;;;;;;5059656;28;20434;-77
2023/09/17 12:11:56;;;;;;;8.20;5.22;;;27.10;27.70;;;;;;5058710;28;20421;-77
2023/09/17 12:14:22;;;;;;;10.48;5.60;;;27.20;26.70;;;;;;5056622;28;20390;-77
2023/09/17 12:16:49;;;;;;;4.95;4.43;;;27.30;26.60;;;;;;5058636;28;20377;-77
2023/09/17 12:19:14;;;;;;;5.57;4.80;;;27.20;27.00;;;;;;5062271;28;20393;-77
2023/09/17 12:21:41;;;;;;;10.50;5.60;;;27.00;27.70;;;;;;5057423;28;20461;-78
2023/09/17 12:24:17;;;;;;;6.70;4.53;;;27.10;27.40;;;;;;5063667;28;20382;-77
2023/09/17 12:29:34;;;;;;;5.75;5.03;;;27.50;26.00;;;;;;5061230;28;20444;-77
2023/09/17 12:32:00;;;;;;;4.83;4.37;;;27.90;25.80;;;;;;5065785;28;20586;-78
2023/09/17 12:34:26;;;;;;;7.63;4.32;;;28.20;24.40;;;;;;5063158;28;20381;-78
2023/09/17 12:36:51;;;;;;;5.53;4.53;;;28.40;23.90;;;;;;5041431;28;20385;-77
2023/09/17 12:39:17;;;;;;;6.22;4.60;;;28.40;22.60;;;;;;5040448;28;20385;-78